sensor_id;sensor_type;location;lat;lon;timestamp;temperature;humidity
65995;HTU21D;52764;51.036;5.852;2023-09-12T00:01:51;22.01;76.71
65995;HTU21D;52764;51.036;5.852;2023-09-12T00:04:16;22.02;77.37
65995;HTU21D;52764;51.036;5.852;2023-09-12T00:06:42;22.02;77.22
65995;HTU21D;52764;51.036;5.852;2023-09-12T00:09:08;22.03;77.46
65995;HTU21D;52764;51.036;5.852;2023-09-12T00:11:34;22.07;78.03
65995;HTU21D;52764;51.036;5.852;2023-09-12T00:14:00;22.10;78.20
65995;HTU21D;52764;51.036;5.852;2023-09-12T00:16:25;22.18;78.12
65995;HTU21D;52764;51.036;5.852;2023-09-12T00:18:51;22.23;78.18
65995;HTU21D;52764;51.036;5.852;2023-09-12T00:21:16;22.28;78.04
65995;HTU21D;52764;51.036;5.852;2023-09-12T00:23:42;22.35;78.30
65995;HTU21D;52764;51.036;5.852;2023-09-12T00:26:08;22.40;78.53
65995;HTU21D;52764;51.036;5.852;2023-09-12T00:28:34;22.34;77.86
65995;HTU21D;52764;51.036;5.852;2023-09-12T00:31:00;22.33;78.12
65995;HTU21D;52764;51.036;5.852;2023-09-12T00:33:26;22.34;77.68
65995;HTU21D;52764;51.036;5.852;2023-09-12T00:35:51;22.29;77.58
65995;HTU21D;52764;51.036;5.852;2023-09-12T00:38:18;22.24;77.85
65995;HTU21D;52764;51.036;5.852;2023-09-12T00:40:44;25.48;77.89
65995;HTU21D;52764;51.036;5.852;2023-09-12T00:43:09;22.28;78.15
65995;HTU21D;52764;51.036;5.852;2023-09-12T00:45:36;22.29;77.75
65995;HTU21D;52764;51.036;5.852;2023-09-12T00:48:04;22.35;77.95
65995;HTU21D;52764;51.036;5.852;2023-09-12T00:50:32;22.37;77.95
65995;HTU21D;52764;51.036;5.852;2023-09-12T00:52:59;22.39;77.85
65995;HTU21D;52764;51.036;5.852;2023-09-12T00:55:28;22.42;77.62
65995;HTU21D;52764;51.036;5.852;2023-09-12T00:57:54;22.41;77.43
65995;HTU21D;52764;51.036;5.852;2023-09-12T01:00:20;22.38;77.27
65995;HTU21D;52764;51.036;5.852;2023-09-12T01:02:46;22.35;76.92
65995;HTU21D;52764;51.036;5.852;2023-09-12T01:05:16;22.29;76.82
65995;HTU21D;52764;51.036;5.852;2023-09-12T01:07:43;22.24;77.18
65995;HTU21D;52764;51.036;5.852;2023-09-12T01:10:10;25.48;77.48
65995;HTU21D;52764;51.036;5.852;2023-09-12T01:12:36;22.28;77.47
65995;HTU21D;52764;51.036;5.852;2023-09-12T01:15:02;22.33;77.34
65995;HTU21D;52764;51.036;5.852;2023-09-12T01:17:31;22.38;77.27
65995;HTU21D;52764;51.036;5.852;2023-09-12T01:19:59;22.43;77.34
65995;HTU21D;52764;51.036;5.852;2023-09-12T01:23:08;22.47;77.24
65995;HTU21D;52764;51.036;5.852;2023-09-12T01:28:30;22.37;76.87
65995;HTU21D;52764;51.036;5.852;2023-09-12T01:31:03;22.07;77.34
65995;HTU21D;52764;51.036;5.852;2023-09-12T01:33:29;21.92;77.98
65995;HTU21D;52764;51.036;5.852;2023-09-12T01:35:55;21.78;78.39
65995;HTU21D;52764;51.036;5.852;2023-09-12T01:38:21;21.75;78.56
65995;HTU21D;52764;51.036;5.852;2023-09-12T01:40:52;21.84;78.36
65995;HTU21D;52764;51.036;5.852;2023-09-12T01:43:21;21.89;78.07
65995;HTU21D;52764;51.036;5.852;2023-09-12T01:45:52;21.93;77.69
65995;HTU21D;52764;51.036;5.852;2023-09-12T01:48:21;21.93;77.71
65995;HTU21D;52764;51.036;5.852;2023-09-12T01:50:49;22.02;77.73
65995;HTU21D;52764;51.036;5.852;2023-09-12T01:53:15;22.07;77.36
65995;HTU21D;52764;51.036;5.852;2023-09-12T01:55:45;22.11;76.97
65995;HTU21D;52764;51.036;5.852;2023-09-12T01:58:12;22.18;77.31
65995;HTU21D;52764;51.036;5.852;2023-09-12T02:00:39;22.21;77.18
65995;HTU21D;52764;51.036;5.852;2023-09-12T02:03:05;22.22;76.86
65995;HTU21D;52764;51.036;5.852;2023-09-12T02:05:31;22.21;76.40
65995;HTU21D;52764;51.036;5.852;2023-09-12T02:07:57;22.19;76.22
65995;HTU21D;52764;51.036;5.852;2023-09-12T02:10:26;22.22;76.34
65995;HTU21D;52764;51.036;5.852;2023-09-12T02:12:51;22.26;76.64
65995;HTU21D;52764;51.036;5.852;2023-09-12T02:15:17;22.27;76.85
65995;HTU21D;52764;51.036;5.852;2023-09-12T02:17:43;22.28;76.72
65995;HTU21D;52764;51.036;5.852;2023-09-12T02:20:10;22.26;76.91
65995;HTU21D;52764;51.036;5.852;2023-09-12T02:22:37;22.23;77.23
65995;HTU21D;52764;51.036;5.852;2023-09-12T02:25:05;22.26;77.32
65995;HTU21D;52764;51.036;5.852;2023-09-12T02:27:31;22.26;77.21
65995;HTU21D;52764;51.036;5.852;2023-09-12T02:29:56;22.28;77.36
65995;HTU21D;52764;51.036;5.852;2023-09-12T02:32:22;22.29;77.56
65995;HTU21D;52764;51.036;5.852;2023-09-12T02:34:48;22.33;77.75
65995;HTU21D;52764;51.036;5.852;2023-09-12T02:37:14;22.36;77.78
65995;HTU21D;52764;51.036;5.852;2023-09-12T02:39:41;22.36;77.80
65995;HTU21D;52764;51.036;5.852;2023-09-12T02:42:07;22.23;77.83
65995;HTU21D;52764;51.036;5.852;2023-09-12T02:44:32;21.95;79.09
65995;HTU21D;52764;51.036;5.852;2023-09-12T02:46:58;21.47;85.74
65995;HTU21D;52764;51.036;5.852;2023-09-12T02:49:23;21.15;84.05
65995;HTU21D;52764;51.036;5.852;2023-09-12T02:51:49;21.16;83.61
65995;HTU21D;52764;51.036;5.852;2023-09-12T02:54:15;21.15;83.34
65995;HTU21D;52764;51.036;5.852;2023-09-12T02:56:40;21.21;84.12
65995;HTU21D;52764;51.036;5.852;2023-09-12T02:59:06;21.33;84.15
65995;HTU21D;52764;51.036;5.852;2023-09-12T03:01:32;21.40;84.00
65995;HTU21D;52764;51.036;5.852;2023-09-12T03:03:58;21.43;84.00
65995;HTU21D;52764;51.036;5.852;2023-09-12T03:06:24;21.47;83.96
65995;HTU21D;52764;51.036;5.852;2023-09-12T03:08:50;21.49;84.00
65995;HTU21D;52764;51.036;5.852;2023-09-12T03:11:16;21.49;83.80
65995;HTU21D;52764;51.036;5.852;2023-09-12T03:13:42;21.46;83.52
65995;HTU21D;52764;51.036;5.852;2023-09-12T03:16:12;21.37;84.10
65995;HTU21D;52764;51.036;5.852;2023-09-12T03:18:38;21.42;84.35
65995;HTU21D;52764;51.036;5.852;2023-09-12T03:21:05;21.44;84.18
65995;HTU21D;52764;51.036;5.852;2023-09-12T03:23:31;21.44;84.60
65995;HTU21D;52764;51.036;5.852;2023-09-12T03:26:03;21.43;84.10
65995;HTU21D;52764;51.036;5.852;2023-09-12T03:28:31;21.43;84.16
65995;HTU21D;52764;51.036;5.852;2023-09-12T03:31:07;21.50;84.29
65995;HTU21D;52764;51.036;5.852;2023-09-12T03:33:33;21.51;84.26
65995;HTU21D;52764;51.036;5.852;2023-09-12T03:35:59;21.47;84.42
65995;HTU21D;52764;51.036;5.852;2023-09-12T03:38:25;21.42;84.12
65995;HTU21D;52764;51.036;5.852;2023-09-12T03:40:51;21.40;83.69
65995;HTU21D;52764;51.036;5.852;2023-09-12T03:43:16;21.36;83.70
65995;HTU21D;52764;51.036;5.852;2023-09-12T03:45:42;21.33;83.66
65995;HTU21D;52764;51.036;5.852;2023-09-12T03:48:08;21.23;83.62
65995;HTU21D;52764;51.036;5.852;2023-09-12T03:50:34;21.17;83.90
65995;HTU21D;52764;51.036;5.852;2023-09-12T03:53:00;21.19;84.10
65995;HTU21D;52764;51.036;5.852;2023-09-12T03:55:25;21.17;84.16
65995;HTU21D;52764;51.036;5.852;2023-09-12T03:57:51;21.16;84.25
65995;HTU21D;52764;51.036;5.852;2023-09-12T04:00:17;21.17;84.01
65995;HTU21D;52764;51.036;5.852;2023-09-12T04:02:46;21.21;84.36
65995;HTU21D;52764;51.036;5.852;2023-09-12T04:05:14;21.27;84.18
65995;HTU21D;52764;51.036;5.852;2023-09-12T04:07:39;21.29;84.42
65995;HTU21D;52764;51.036;5.852;2023-09-12T04:10:06;21.34;84.32
65995;HTU21D;52764;51.036;5.852;2023-09-12T04:12:31;21.38;84.40
65995;HTU21D;52764;51.036;5.852;2023-09-12T04:14:57;21.43;84.55
65995;HTU21D;52764;51.036;5.852;2023-09-12T04:17:23;21.49;84.49
65995;HTU21D;52764;51.036;5.852;2023-09-12T04:19:49;21.50;84.44
65995;HTU21D;52764;51.036;5.852;2023-09-12T04:22:15;21.50;84.22
65995;HTU21D;52764;51.036;5.852;2023-09-12T04:24:41;21.47;84.23
65995;HTU21D;52764;51.036;5.852;2023-09-12T04:27:07;21.43;84.11
65995;HTU21D;52764;51.036;5.852;2023-09-12T04:29:33;21.35;83.87
65995;HTU21D;52764;51.036;5.852;2023-09-12T04:32:05;21.27;83.88
65995;HTU21D;52764;51.036;5.852;2023-09-12T04:34:31;21.18;84.35
65995;HTU21D;52764;51.036;5.852;2023-09-12T04:36:57;21.18;84.90
65995;HTU21D;52764;51.036;5.852;2023-09-12T04:39:24;21.17;84.92
65995;HTU21D;52764;51.036;5.852;2023-09-12T04:41:50;21.18;84.98
65995;HTU21D;52764;51.036;5.852;2023-09-12T04:44:16;21.16;85.12
65995;HTU21D;52764;51.036;5.852;2023-09-12T04:46:41;21.17;85.19
65995;HTU21D;52764;51.036;5.852;2023-09-12T04:49:07;21.16;85.36
65995;HTU21D;52764;51.036;5.852;2023-09-12T04:51:33;21.11;85.66
65995;HTU21D;52764;51.036;5.852;2023-09-12T04:53:58;21.16;85.88
65995;HTU21D;52764;51.036;5.852;2023-09-12T04:56:24;21.18;85.50
65995;HTU21D;52764;51.036;5.852;2023-09-12T04:58:50;21.17;85.29
65995;HTU21D;52764;51.036;5.852;2023-09-12T05:01:16;21.16;85.06
65995;HTU21D;52764;51.036;5.852;2023-09-12T05:03:43;21.16;84.97
65995;HTU21D;52764;51.036;5.852;2023-09-12T05:06:12;21.15;85.16
65995;HTU21D;52764;51.036;5.852;2023-09-12T05:08:39;21.14;85.16
65995;HTU21D;52764;51.036;5.852;2023-09-12T05:11:05;21.15;85.05
65995;HTU21D;52764;51.036;5.852;2023-09-12T05:13:30;21.21;84.90
65995;HTU21D;52764;51.036;5.852;2023-09-12T05:15:56;21.19;85.19
65995;HTU21D;52764;51.036;5.852;2023-09-12T05:18:23;21.09;84.99
65995;HTU21D;52764;51.036;5.852;2023-09-12T05:20:49;20.99;85.52
65995;HTU21D;52764;51.036;5.852;2023-09-12T05:23:15;20.84;85.85
65995;HTU21D;52764;51.036;5.852;2023-09-12T05:25:41;20.56;86.60
65995;HTU21D;52764;51.036;5.852;2023-09-12T05:28:07;20.46;87.15
65995;HTU21D;52764;51.036;5.852;2023-09-12T05:30:32;20.51;86.76
65995;HTU21D;52764;51.036;5.852;2023-09-12T05:32:58;20.57;86.44
65995;HTU21D;52764;51.036;5.852;2023-09-12T05:35:24;20.61;86.35
65995;HTU21D;52764;51.036;5.852;2023-09-12T05:37:51;20.66;86.42
65995;HTU21D;52764;51.036;5.852;2023-09-12T05:40:18;20.72;86.18
65995;HTU21D;52764;51.036;5.852;2023-09-12T05:42:44;20.65;86.41
65995;HTU21D;52764;51.036;5.852;2023-09-12T05:45:10;20.65;86.63
65995;HTU21D;52764;51.036;5.852;2023-09-12T05:47:36;20.71;86.58
65995;HTU21D;52764;51.036;5.852;2023-09-12T05:50:02;20.78;86.44
65995;HTU21D;52764;51.036;5.852;2023-09-12T05:52:33;20.75;86.56
65995;HTU21D;52764;51.036;5.852;2023-09-12T05:54:59;20.68;86.61
65995;HTU21D;52764;51.036;5.852;2023-09-12T05:57:25;20.69;86.54
65995;HTU21D;52764;51.036;5.852;2023-09-12T05:59:51;20.80;86.10
65995;HTU21D;52764;51.036;5.852;2023-09-12T06:02:17;20.91;85.79
65995;HTU21D;52764;51.036;5.852;2023-09-12T06:04:43;20.79;85.83
65995;HTU21D;52764;51.036;5.852;2023-09-12T06:07:09;20.74;86.11
65995;HTU21D;52764;51.036;5.852;2023-09-12T06:09:35;20.69;86.48
65995;HTU21D;52764;51.036;5.852;2023-09-12T06:12:02;20.75;86.32
65995;HTU21D;52764;51.036;5.852;2023-09-12T06:14:27;20.84;86.13
65995;HTU21D;52764;51.036;5.852;2023-09-12T06:16:53;20.90;85.97
65995;HTU21D;52764;51.036;5.852;2023-09-12T06:19:19;20.90;85.77
65995;HTU21D;52764;51.036;5.852;2023-09-12T06:21:45;20.91;85.84
65995;HTU21D;52764;51.036;5.852;2023-09-12T06:24:19;20.86;86.02
65995;HTU21D;52764;51.036;5.852;2023-09-12T06:26:46;20.84;85.85
65995;HTU21D;52764;51.036;5.852;2023-09-12T06:29:13;20.84;85.68
65995;HTU21D;52764;51.036;5.852;2023-09-12T06:31:39;20.87;85.45
65995;HTU21D;52764;51.036;5.852;2023-09-12T06:34:07;20.89;85.61
65995;HTU21D;52764;51.036;5.852;2023-09-12T06:36:33;20.94;85.68
65995;HTU21D;52764;51.036;5.852;2023-09-12T06:38:59;21.02;85.58
65995;HTU21D;52764;51.036;5.852;2023-09-12T06:41:26;21.10;85.48
65995;HTU21D;52764;51.036;5.852;2023-09-12T06:43:53;21.17;85.26
65995;HTU21D;52764;51.036;5.852;2023-09-12T06:46:19;21.21;85.09
65995;HTU21D;52764;51.036;5.852;2023-09-12T06:48:45;21.23;84.89
65995;HTU21D;52764;51.036;5.852;2023-09-12T06:51:12;21.22;84.93
65995;HTU21D;52764;51.036;5.852;2023-09-12T06:53:38;21.25;84.96
65995;HTU21D;52764;51.036;5.852;2023-09-12T06:56:07;21.31;84.81
65995;HTU21D;52764;51.036;5.852;2023-09-12T06:58:33;21.35;84.77
65995;HTU21D;52764;51.036;5.852;2023-09-12T07:01:03;23.76;84.73
65995;HTU21D;52764;51.036;5.852;2023-09-12T07:03:31;21.52;84.79
65995;HTU21D;52764;51.036;5.852;2023-09-12T07:05:56;21.65;84.77
65995;HTU21D;52764;51.036;5.852;2023-09-12T07:08:23;21.92;84.94
65995;HTU21D;52764;51.036;5.852;2023-09-12T07:10:48;22.35;84.67
65995;HTU21D;52764;51.036;5.852;2023-09-12T07:13:14;22.78;83.46
65995;HTU21D;52764;51.036;5.852;2023-09-12T07:15:40;22.83;81.64
65995;HTU21D;52764;51.036;5.852;2023-09-12T07:18:06;22.79;80.69
65995;HTU21D;52764;51.036;5.852;2023-09-12T07:20:35;22.83;79.78
65995;HTU21D;52764;51.036;5.852;2023-09-12T07:23:00;22.80;79.56
65995;HTU21D;52764;51.036;5.852;2023-09-12T07:25:26;22.64;79.89
65995;HTU21D;52764;51.036;5.852;2023-09-12T07:27:52;22.63;80.61
65995;HTU21D;52764;51.036;5.852;2023-09-12T07:30:18;23.00;81.27
65995;HTU21D;52764;51.036;5.852;2023-09-12T07:32:44;23.51;79.90
65995;HTU21D;52764;51.036;5.852;2023-09-12T07:35:10;23.94;78.08
65995;HTU21D;52764;51.036;5.852;2023-09-12T07:37:36;24.28;76.82
65995;HTU21D;52764;51.036;5.852;2023-09-12T07:40:02;24.76;74.67
65995;HTU21D;52764;51.036;5.852;2023-09-12T07:42:35;25.08;72.73
65995;HTU21D;52764;51.036;5.852;2023-09-12T07:45:04;25.40;71.74
65995;HTU21D;52764;51.036;5.852;2023-09-12T07:47:32;25.68;69.39
65995;HTU21D;52764;51.036;5.852;2023-09-12T07:49:57;25.95;68.17
65995;HTU21D;52764;51.036;5.852;2023-09-12T07:52:24;26.20;66.53
65995;HTU21D;52764;51.036;5.852;2023-09-12T07:54:50;26.38;66.04
65995;HTU21D;52764;51.036;5.852;2023-09-12T07:57:19;26.66;82.89
65995;HTU21D;52764;51.036;5.852;2023-09-12T07:59:44;26.92;65.06
65995;HTU21D;52764;51.036;5.852;2023-09-12T08:02:10;13.30;70.59
65995;HTU21D;52764;51.036;5.852;2023-09-12T08:04:38;27.23;61.98
65995;HTU21D;52764;51.036;5.852;2023-09-12T08:07:03;27.30;61.50
65995;HTU21D;52764;51.036;5.852;2023-09-12T08:12:14;27.52;61.70
65995;HTU21D;52764;51.036;5.852;2023-09-12T08:14:39;27.45;60.82
65995;HTU21D;52764;51.036;5.852;2023-09-12T08:17:05;27.20;60.40
65995;HTU21D;52764;51.036;5.852;2023-09-12T08:19:31;26.89;60.12
65995;HTU21D;52764;51.036;5.852;2023-09-12T08:21:56;26.57;60.54
65995;HTU21D;52764;51.036;5.852;2023-09-12T08:24:22;26.31;62.33
65995;HTU21D;52764;51.036;5.852;2023-09-12T08:26:47;26.03;63.27
65995;HTU21D;52764;51.036;5.852;2023-09-12T08:29:13;25.76;64.18
65995;HTU21D;52764;51.036;5.852;2023-09-12T08:31:39;25.57;64.82
65995;HTU21D;52764;51.036;5.852;2023-09-12T08:34:05;25.45;65.44
65995;HTU21D;52764;51.036;5.852;2023-09-12T08:36:30;25.40;66.26
65995;HTU21D;52764;51.036;5.852;2023-09-12T08:38:56;25.39;66.69
65995;HTU21D;52764;51.036;5.852;2023-09-12T08:41:22;25.40;67.55
65995;HTU21D;52764;51.036;5.852;2023-09-12T08:43:48;25.40;68.16
65995;HTU21D;52764;51.036;5.852;2023-09-12T08:46:16;25.46;68.60
65995;HTU21D;52764;51.036;5.852;2023-09-12T08:48:43;25.50;67.33
65995;HTU21D;52764;51.036;5.852;2023-09-12T08:51:11;25.51;67.17
65995;HTU21D;52764;51.036;5.852;2023-09-12T08:53:38;25.50;67.24
65995;HTU21D;52764;51.036;5.852;2023-09-12T08:56:04;25.47;66.55
65995;HTU21D;52764;51.036;5.852;2023-09-12T08:58:32;25.40;65.62
65995;HTU21D;52764;51.036;5.852;2023-09-12T09:00:59;25.39;66.36
65995;HTU21D;52764;51.036;5.852;2023-09-12T09:03:26;25.35;60.47
65995;HTU21D;52764;51.036;5.852;2023-09-12T09:05:54;25.36;66.74
65995;HTU21D;52764;51.036;5.852;2023-09-12T09:08:22;25.42;67.23
65995;HTU21D;52764;51.036;5.852;2023-09-12T09:10:59;25.47;66.73
65995;HTU21D;52764;51.036;5.852;2023-09-12T09:13:27;25.48;66.33
65995;HTU21D;52764;51.036;5.852;2023-09-12T09:16:10;25.38;66.19
65995;HTU21D;52764;51.036;5.852;2023-09-12T09:18:56;25.25;67.09
65995;HTU21D;52764;51.036;5.852;2023-09-12T09:21:25;25.18;67.40
65995;HTU21D;52764;51.036;5.852;2023-09-12T09:23:53;25.16;66.78
65995;HTU21D;52764;51.036;5.852;2023-09-12T09:26:20;25.09;66.63
65995;HTU21D;52764;51.036;5.852;2023-09-12T09:28:46;25.10;67.68
65995;HTU21D;52764;51.036;5.852;2023-09-12T09:31:25;25.05;66.39
65995;HTU21D;52764;51.036;5.852;2023-09-12T09:33:51;24.98;66.36
65995;HTU21D;52764;51.036;5.852;2023-09-12T09:36:17;24.97;66.87
65995;HTU21D;52764;51.036;5.852;2023-09-12T09:38:43;24.99;66.85
65995;HTU21D;52764;51.036;5.852;2023-09-12T09:41:09;24.99;66.97
65995;HTU21D;52764;51.036;5.852;2023-09-12T09:43:35;24.95;67.01
65995;HTU21D;52764;51.036;5.852;2023-09-12T09:46:02;24.91;66.44
65995;HTU21D;52764;51.036;5.852;2023-09-12T09:48:29;24.89;66.36
65995;HTU21D;52764;51.036;5.852;2023-09-12T09:51:01;24.92;65.93
65995;HTU21D;52764;51.036;5.852;2023-09-12T09:53:29;24.97;65.17
65995;HTU21D;52764;51.036;5.852;2023-09-12T09:56:12;25.03;65.32
65995;HTU21D;52764;51.036;5.852;2023-09-12T09:58:58;25.12;65.04
65995;HTU21D;52764;51.036;5.852;2023-09-12T10:01:29;25.17;65.27
65995;HTU21D;52764;51.036;5.852;2023-09-12T10:04:01;25.22;65.49
65995;HTU21D;52764;51.036;5.852;2023-09-12T10:06:29;25.29;64.90
65995;HTU21D;52764;51.036;5.852;2023-09-12T10:08:58;25.40;64.34
65995;HTU21D;52764;51.036;5.852;2023-09-12T10:11:27;25.50;64.25
65995;HTU21D;52764;51.036;5.852;2023-09-12T10:13:56;25.54;64.18
65995;HTU21D;52764;51.036;5.852;2023-09-12T10:16:46;25.58;71.46
65995;HTU21D;52764;51.036;5.852;2023-09-12T10:19:19;25.67;64.27
65995;HTU21D;52764;51.036;5.852;2023-09-12T10:22:09;25.76;63.07
65995;HTU21D;52764;51.036;5.852;2023-09-12T10:24:35;25.83;61.81
65995;HTU21D;52764;51.036;5.852;2023-09-12T10:27:06;25.84;61.95
65995;HTU21D;52764;51.036;5.852;2023-09-12T10:29:32;25.89;62.08
65995;HTU21D;52764;51.036;5.852;2023-09-12T10:32:00;25.91;63.11
65995;HTU21D;52764;51.036;5.852;2023-09-12T10:34:26;25.91;63.56
65995;HTU21D;52764;51.036;5.852;2023-09-12T10:36:55;25.90;63.57
65995;HTU21D;52764;51.036;5.852;2023-09-12T10:39:27;25.91;63.44
65995;HTU21D;52764;51.036;5.852;2023-09-12T10:41:54;25.95;63.13
65995;HTU21D;52764;51.036;5.852;2023-09-12T10:44:21;25.93;63.37
65995;HTU21D;52764;51.036;5.852;2023-09-12T10:46:48;25.98;63.34
65995;HTU21D;52764;51.036;5.852;2023-09-12T10:49:15;26.06;62.77
65995;HTU21D;52764;51.036;5.852;2023-09-12T10:51:46;26.12;68.94
65995;HTU21D;52764;51.036;5.852;2023-09-12T10:54:35;26.23;62.15
65995;HTU21D;52764;51.036;5.852;2023-09-12T10:57:11;26.27;60.83
65995;HTU21D;52764;51.036;5.852;2023-09-12T11:05:02;26.41;60.05
65995;HTU21D;52764;51.036;5.852;2023-09-12T11:07:32;26.34;60.15
65995;HTU21D;52764;51.036;5.852;2023-09-12T11:12:45;26.37;59.67
65995;HTU21D;52764;51.036;5.852;2023-09-12T11:15:12;26.46;59.98
65995;HTU21D;52764;51.036;5.852;2023-09-12T11:17:40;26.60;59.90
65995;HTU21D;52764;51.036;5.852;2023-09-12T11:20:07;26.73;59.62
65995;HTU21D;52764;51.036;5.852;2023-09-12T11:22:46;26.81;59.77
65995;HTU21D;52764;51.036;5.852;2023-09-12T11:25:21;26.93;59.26
65995;HTU21D;52764;51.036;5.852;2023-09-12T11:30:17;27.04;59.11
65995;HTU21D;52764;51.036;5.852;2023-09-12T11:32:46;27.07;58.93
65995;HTU21D;52764;51.036;5.852;2023-09-12T11:35:14;27.10;59.13
65995;HTU21D;52764;51.036;5.852;2023-09-12T11:37:51;27.16;59.31
65995;HTU21D;52764;51.036;5.852;2023-09-12T11:40:23;27.31;58.63
65995;HTU21D;52764;51.036;5.852;2023-09-12T11:42:50;27.31;58.39
65995;HTU21D;52764;51.036;5.852;2023-09-12T11:45:21;27.35;58.29
65995;HTU21D;52764;51.036;5.852;2023-09-12T11:47:48;27.37;57.61
65995;HTU21D;52764;51.036;5.852;2023-09-12T11:50:35;27.37;57.60
65995;HTU21D;52764;51.036;5.852;2023-09-12T11:53:10;27.38;57.40
65995;HTU21D;52764;51.036;5.852;2023-09-12T11:56:02;27.39;57.70
65995;HTU21D;52764;51.036;5.852;2023-09-12T11:58:28;27.24;58.25
65995;HTU21D;52764;51.036;5.852;2023-09-12T12:00:56;27.19;58.89
65995;HTU21D;52764;51.036;5.852;2023-09-12T12:03:25;27.21;58.97
65995;HTU21D;52764;51.036;5.852;2023-09-12T12:05:51;27.22;58.88
65995;HTU21D;52764;51.036;5.852;2023-09-12T12:08:18;27.21;58.38
65995;HTU21D;52764;51.036;5.852;2023-09-12T12:10:49;27.23;57.80
65995;HTU21D;52764;51.036;5.852;2023-09-12T12:13:20;27.29;58.02
65995;HTU21D;52764;51.036;5.852;2023-09-12T12:15:45;27.36;57.76
65995;HTU21D;52764;51.036;5.852;2023-09-12T12:18:11;27.27;57.66
65995;HTU21D;52764;51.036;5.852;2023-09-12T12:20:37;27.20;58.42
65995;HTU21D;52764;51.036;5.852;2023-09-12T12:23:03;27.16;58.16
65995;HTU21D;52764;51.036;5.852;2023-09-12T12:25:35;27.20;57.77
65995;HTU21D;52764;51.036;5.852;2023-09-12T12:28:02;27.31;58.03
65995;HTU21D;52764;51.036;5.852;2023-09-12T12:30:33;27.41;57.31
65995;HTU21D;52764;51.036;5.852;2023-09-12T12:33:01;27.37;57.19
65995;HTU21D;52764;51.036;5.852;2023-09-12T12:35:28;27.39;57.29
65995;HTU21D;52764;51.036;5.852;2023-09-12T12:37:55;27.47;57.20
65995;HTU21D;52764;51.036;5.852;2023-09-12T12:40:22;27.55;57.26
65995;HTU21D;52764;51.036;5.852;2023-09-12T12:42:48;27.57;56.90
65995;HTU21D;52764;51.036;5.852;2023-09-12T12:45:16;27.61;57.66
65995;HTU21D;52764;51.036;5.852;2023-09-12T12:47:43;27.68;57.06
65995;HTU21D;52764;51.036;5.852;2023-09-12T12:50:15;27.70;57.19
65995;HTU21D;52764;51.036;5.852;2023-09-12T12:52:43;27.72;57.13
65995;HTU21D;52764;51.036;5.852;2023-09-12T12:55:12;27.74;56.91
65995;HTU21D;52764;51.036;5.852;2023-09-12T12:57:44;27.72;56.87
65995;HTU21D;52764;51.036;5.852;2023-09-12T13:00:14;27.68;56.73
65995;HTU21D;52764;51.036;5.852;2023-09-12T13:02:42;27.67;56.61
65995;HTU21D;52764;51.036;5.852;2023-09-12T13:05:28;27.66;56.94
65995;HTU21D;52764;51.036;5.852;2023-09-12T13:07:56;27.69;56.40
65995;HTU21D;52764;51.036;5.852;2023-09-12T13:10:22;27.71;56.56
65995;HTU21D;52764;51.036;5.852;2023-09-12T13:12:49;27.74;55.66
65995;HTU21D;52764;51.036;5.852;2023-09-12T13:15:16;27.74;55.46
65995;HTU21D;52764;51.036;5.852;2023-09-12T13:17:43;27.72;55.65
65995;HTU21D;52764;51.036;5.852;2023-09-12T13:20:10;27.67;56.21
65995;HTU21D;52764;51.036;5.852;2023-09-12T13:22:36;27.69;56.24
65995;HTU21D;52764;51.036;5.852;2023-09-12T13:25:02;27.72;56.68
65995;HTU21D;52764;51.036;5.852;2023-09-12T13:27:29;27.80;56.47
65995;HTU21D;52764;51.036;5.852;2023-09-12T13:29:54;27.87;56.35
65995;HTU21D;52764;51.036;5.852;2023-09-12T13:32:20;27.82;55.62
65995;HTU21D;52764;51.036;5.852;2023-09-12T13:34:46;27.83;55.59
65995;HTU21D;52764;51.036;5.852;2023-09-12T13:37:12;27.84;55.52
65995;HTU21D;52764;51.036;5.852;2023-09-12T13:39:37;27.73;55.39
65995;HTU21D;52764;51.036;5.852;2023-09-12T13:42:05;27.65;56.16
65995;HTU21D;52764;51.036;5.852;2023-09-12T13:44:33;27.60;55.98
65995;HTU21D;52764;51.036;5.852;2023-09-12T13:46:59;27.61;56.19
65995;HTU21D;52764;51.036;5.852;2023-09-12T13:49:25;27.61;55.97
65995;HTU21D;52764;51.036;5.852;2023-09-12T13:51:51;27.61;55.87
65995;HTU21D;52764;51.036;5.852;2023-09-12T13:54:16;27.63;55.52
65995;HTU21D;52764;51.036;5.852;2023-09-12T13:56:43;27.56;55.88
65995;HTU21D;52764;51.036;5.852;2023-09-12T13:59:09;27.61;56.39
65995;HTU21D;52764;51.036;5.852;2023-09-12T14:01:35;27.69;55.89
65995;HTU21D;52764;51.036;5.852;2023-09-12T14:04:04;27.78;56.03
65995;HTU21D;52764;51.036;5.852;2023-09-12T14:06:31;27.83;54.97
65995;HTU21D;52764;51.036;5.852;2023-09-12T14:08:57;27.81;54.87
65995;HTU21D;52764;51.036;5.852;2023-09-12T14:11:22;27.83;55.45
65995;HTU21D;52764;51.036;5.852;2023-09-12T14:13:48;27.84;54.90
65995;HTU21D;52764;51.036;5.852;2023-09-12T14:16:14;27.85;54.78
65995;HTU21D;52764;51.036;5.852;2023-09-12T14:18:40;27.84;53.94
65995;HTU21D;52764;51.036;5.852;2023-09-12T14:21:06;27.80;53.79
65995;HTU21D;52764;51.036;5.852;2023-09-12T14:23:31;27.80;54.16
65995;HTU21D;52764;51.036;5.852;2023-09-12T14:25:57;27.84;54.40
65995;HTU21D;52764;51.036;5.852;2023-09-12T14:28:23;27.84;53.71
65995;HTU21D;52764;51.036;5.852;2023-09-12T14:30:49;27.85;53.62
65995;HTU21D;52764;51.036;5.852;2023-09-12T14:33:15;27.89;53.59
65995;HTU21D;52764;51.036;5.852;2023-09-12T14:35:43;27.94;52.85
65995;HTU21D;52764;51.036;5.852;2023-09-12T14:38:09;28.00;52.56
65995;HTU21D;52764;51.036;5.852;2023-09-12T14:40:34;28.04;52.84
65995;HTU21D;52764;51.036;5.852;2023-09-12T14:43:00;28.11;52.79
65995;HTU21D;52764;51.036;5.852;2023-09-12T14:45:29;28.12;53.00
65995;HTU21D;52764;51.036;5.852;2023-09-12T14:47:56;28.13;52.68
65995;HTU21D;52764;51.036;5.852;2023-09-12T14:50:23;28.15;53.22
65995;HTU21D;52764;51.036;5.852;2023-09-12T14:52:50;28.18;53.52
65995;HTU21D;52764;51.036;5.852;2023-09-12T14:55:16;28.23;53.49
65995;HTU21D;52764;51.036;5.852;2023-09-12T14:57:42;28.20;53.01
65995;HTU21D;52764;51.036;5.852;2023-09-12T15:00:08;28.23;53.07
65995;HTU21D;52764;51.036;5.852;2023-09-12T15:02:34;28.24;53.56
65995;HTU21D;52764;51.036;5.852;2023-09-12T15:05:01;28.24;52.92
65995;HTU21D;52764;51.036;5.852;2023-09-12T15:07:28;28.21;52.37
65995;HTU21D;52764;51.036;5.852;2023-09-12T15:09:57;28.13;52.77
65995;HTU21D;52764;51.036;5.852;2023-09-12T15:12:23;27.99;52.52
65995;HTU21D;52764;51.036;5.852;2023-09-12T15:14:50;28.06;52.82
65995;HTU21D;52764;51.036;5.852;2023-09-12T15:17:17;28.13;52.59
65995;HTU21D;52764;51.036;5.852;2023-09-12T15:19:43;28.19;52.00
65995;HTU21D;52764;51.036;5.852;2023-09-12T15:22:09;28.21;52.19
65995;HTU21D;52764;51.036;5.852;2023-09-12T15:24:34;28.23;52.15
65995;HTU21D;52764;51.036;5.852;2023-09-12T15:27:00;28.28;52.62
65995;HTU21D;52764;51.036;5.852;2023-09-12T15:29:26;28.28;47.69
65995;HTU21D;52764;51.036;5.852;2023-09-12T15:31:53;28.27;51.87
65995;HTU21D;52764;51.036;5.852;2023-09-12T15:34:19;28.25;52.09